Aviation Digital Data Service (ADDS)

Output produced by METARs form (0613 UTC 24 May 2022)
found at http://aviationweather.gov/metar/data/
 
KOEO 240555Z AUTO 00000KT 10SM CLR 11/05 A3026 RMK AO2 T01090053 10182 20079 401990043